KFRM

Fairmont Municipal Airport

Fairmont, Minnesota, USA
METAR KFRM 170756Z AUTO 36009KT 3SM BR OVC003 M03/M04 A3005 RMK AO2 SLP193 T10331039 FZRANO
Observed Flight Rules
Dec-17 @ 07:56 UTC (21 minutes ago) Instrument Flight Rules
Wind Visibility Clouds Conditions
360° at 9 knots 3 miles
  • Overcast at 300' AGL
  • Mist
Temperatures Readings
Current -3°C / 27°F
Dewpoint -4°C / 25°F
Humidity 93%
Altimeter 30.05" Hg
Pressure 1019.3 hPa
Elevation 354
METAR KFRM 170756Z AUTO 36009KT 3SM BR OVC003 M03/M04 A3005 RMK AO2 SLP193 T10331039 FZRANO
Observed Flight Rules
Dec-17 @ 07:56 UTC
(21 minutes ago)
LIFR
Wind Visibility
360° at 9 knots 3 miles
Clouds
  • Overcast at 300' AGL
Conditions
  • Mist
Temperature Dewpoint
-3°C / 27°F -4°C / 25°F
Humidity Altimeter Pressure
93% 30.05" Hg 1019.3 hPa